Time;durP1;ratioP1;P1;durP2;ratioP2;P2;SDS_P1;SDS_P2;PMS_P1;PMS_P2;Temp;Humidity;BMP_temperature;BMP_pressure;BME280_temperature;BME280_humidity;BME280_pressure;Samples;Min_cycle;Max_cycle;Signal;HPM_P1;HPM_P2
2023/09/04 00:02:01;;;;;;;5.82;2.92;;;20.40;99.90;;;;;;4997590;28;20034;-75
2023/09/04 00:04:27;;;;;;;5.53;3.15;;;20.30;99.90;;;;;;4992684;28;20092;-75
2023/09/04 00:06:53;;;;;;;6.57;2.78;;;20.30;99.90;;;;;;4993153;28;20026;-75
2023/09/04 00:09:18;;;;;;;6.15;3.22;;;20.20;99.90;;;;;;4992021;28;20085;-75
2023/09/04 00:11:44;;;;;;;5.72;2.97;;;20.10;99.90;;;;;;4992134;28;20490;-75
2023/09/04 00:14:10;;;;;;;5.78;3.42;;;20.00;99.90;;;;;;4996674;28;20518;-75
2023/09/04 00:16:35;;;;;;;6.15;3.15;;;19.90;99.90;;;;;;4992304;28;20081;-75
2023/09/04 00:19:01;;;;;;;8.15;3.63;;;20.00;99.90;;;;;;4991663;28;20036;-75
2023/09/04 00:21:26;;;;;;;7.55;3.15;;;20.00;99.90;;;;;;4995661;28;20037;-75
2023/09/04 00:23:52;;;;;;;5.72;3.53;;;20.10;99.90;;;;;;4991262;28;20026;-75
2023/09/04 00:26:18;;;;;;;6.05;3.30;;;20.00;99.90;;;;;;4991445;28;20023;-75
2023/09/04 00:28:43;;;;;;;5.75;3.13;;;20.20;99.90;;;;;;4993089;28;20709;-75
2023/09/04 00:31:09;;;;;;;5.45;2.80;;;20.10;99.90;;;;;;4992751;28;20122;-74
2023/09/04 00:33:35;;;;;;;6.60;3.20;;;20.00;99.90;;;;;;4991240;28;20026;-74
2023/09/04 00:36:02;;;;;;;6.10;3.22;;;19.90;99.90;;;;;;4991742;28;20027;-75
2023/09/04 00:38:28;;;;;;;4.03;2.70;;;19.90;99.90;;;;;;4991519;28;20517;-75
2023/09/04 00:40:54;;;;;;;5.47;3.40;;;19.90;99.90;;;;;;4993408;28;20109;-74
2023/09/04 00:43:20;;;;;;;6.03;3.15;;;19.90;99.90;;;;;;5004434;28;20161;-75
2023/09/04 00:45:46;;;;;;;5.32;2.83;;;19.90;99.90;;;;;;4991411;28;20030;-75
2023/09/04 00:48:12;;;;;;;5.95;3.35;;;19.90;99.90;;;;;;4992788;28;20045;-75
2023/09/04 00:50:41;;;;;;;6.55;3.15;;;19.70;99.90;;;;;;4992243;28;20046;-75
2023/09/04 00:53:08;;;;;;;5.38;3.13;;;19.70;99.90;;;;;;4993417;28;20061;-75
2023/09/04 00:55:35;;;;;;;5.47;3.08;;;19.50;99.90;;;;;;4994235;28;20034;-74
2023/09/04 00:58:01;;;;;;;4.95;2.78;;;19.60;99.90;;;;;;5001035;28;20026;-75
2023/09/04 01:00:27;;;;;;;8.40;3.83;;;19.60;99.90;;;;;;4991510;28;20041;-75
2023/09/04 01:02:53;;;;;;;4.88;3.03;;;19.70;99.90;;;;;;4990307;28;20156;-75
2023/09/04 01:05:20;;;;;;;5.25;2.95;;;19.70;99.90;;;;;;4993614;28;20041;-75
2023/09/04 01:07:46;;;;;;;5.40;2.90;;;19.80;99.90;;;;;;4992114;28;20653;-75
2023/09/04 01:10:13;;;;;;;8.98;3.08;;;19.90;99.90;;;;;;4991014;28;20719;-75
2023/09/04 01:13:07;;;;;;;6.30;3.50;;;20.00;99.90;;;;;;4990880;28;20041;-75
2023/09/04 01:15:33;;;;;;;4.90;2.97;;;19.90;99.90;;;;;;4990075;28;20073;-75
2023/09/04 01:18:01;;;;;;;6.63;3.70;;;19.90;99.90;;;;;;4991874;28;20111;-75
2023/09/04 01:20:28;;;;;;;7.07;3.67;;;19.90;99.90;;;;;;4990919;28;20033;-75
2023/09/04 01:22:55;;;;;;;6.60;3.72;;;20.00;99.90;;;;;;4994663;28;20026;-75
2023/09/04 01:25:33;;;;;;;5.65;3.42;;;20.00;99.90;;;;;;4995876;28;20126;-75
2023/09/04 01:28:33;;;;;;;5.25;3.20;;;19.90;99.90;;;;;;4992091;28;20385;-74
2023/09/04 01:31:12;;;;;;;4.88;3.17;;;19.80;99.90;;;;;;4987150;28;20511;-74
2023/09/04 01:33:49;;;;;;;5.78;3.08;;;19.60;99.90;;;;;;4991631;28;20034;-75
2023/09/04 01:36:16;;;;;;;5.90;3.78;;;19.70;99.90;;;;;;4998096;28;20034;-75
2023/09/04 01:38:45;;;;;;;5.60;3.67;;;19.70;99.90;;;;;;4992297;28;21232;-74
2023/09/04 01:41:10;;;;;;;9.20;3.30;;;19.60;99.90;;;;;;4991649;28;20084;-74
2023/09/04 01:43:36;;;;;;;5.47;3.28;;;19.60;99.90;;;;;;4993508;28;20429;-75
2023/09/04 01:46:02;;;;;;;5.32;3.35;;;19.50;99.90;;;;;;4990169;28;20034;-75
2023/09/04 01:48:27;;;;;;;5.63;3.30;;;19.60;99.90;;;;;;4989367;28;20173;-74
2023/09/04 01:50:54;;;;;;;5.53;3.33;;;19.50;99.90;;;;;;4995095;28;20026;-74
2023/09/04 01:53:20;;;;;;;4.53;3.22;;;19.40;99.90;;;;;;4990226;28;20030;-74
2023/09/04 01:55:45;;;;;;;4.60;3.03;;;19.20;99.90;;;;;;4990351;28;20045;-74
2023/09/04 01:58:11;;;;;;;9.05;3.20;;;19.10;99.90;;;;;;4990815;28;20412;-74
2023/09/04 02:00:37;;;;;;;5.22;3.65;;;19.00;99.90;;;;;;4991757;28;20117;-74
2023/09/04 02:03:03;;;;;;;5.85;3.38;;;19.00;99.90;;;;;;4989869;28;20091;-74
2023/09/04 02:05:29;;;;;;;4.50;2.92;;;18.90;99.90;;;;;;4992010;28;20093;-74
2023/09/04 02:07:55;;;;;;;7.40;3.10;;;19.00;99.90;;;;;;4989194;28;20507;-74
2023/09/04 02:10:23;;;;;;;5.85;3.15;;;19.10;99.90;;;;;;4992982;28;20030;-74
2023/09/04 02:12:49;;;;;;;4.47;3.05;;;19.10;99.90;;;;;;4989819;28;20121;-74
2023/09/04 02:15:16;;;;;;;6.40;3.17;;;19.00;99.90;;;;;;4990540;28;20591;-74
2023/09/04 02:17:41;;;;;;;5.18;3.17;;;19.00;99.90;;;;;;4992179;28;20044;-74
2023/09/04 02:20:07;;;;;;;6.18;3.17;;;18.90;99.90;;;;;;4991978;28;20030;-74
2023/09/04 02:22:33;;;;;;;6.53;3.33;;;19.00;99.90;;;;;;4990111;28;20034;-74
2023/09/04 02:24:58;;;;;;;8.10;3.20;;;18.90;99.90;;;;;;4991691;28;20036;-74
2023/09/04 02:27:24;;;;;;;6.20;3.40;;;18.80;99.90;;;;;;4989282;28;20026;-74
2023/09/04 02:29:50;;;;;;;5.75;3.50;;;18.70;99.90;;;;;;4989476;28;20507;-74
2023/09/04 02:32:15;;;;;;;6.28;3.78;;;18.80;99.90;;;;;;4993358;28;20472;-74
2023/09/04 02:34:41;;;;;;;4.97;3.42;;;19.10;99.90;;;;;;4989264;28;20034;-74
2023/09/04 02:37:07;;;;;;;10.02;4.30;;;19.10;99.90;;;;;;4989086;28;20054;-74
2023/09/04 02:39:32;;;;;;;5.90;3.53;;;19.10;99.90;;;;;;4992252;28;20089;-74
2023/09/04 02:41:58;;;;;;;5.60;3.78;;;19.10;99.90;;;;;;4989464;28;20028;-74
2023/09/04 02:44:24;;;;;;;7.53;3.92;;;19.20;99.90;;;;;;4989182;28;20041;-74
2023/09/04 02:46:49;;;;;;;8.05;3.65;;;19.10;99.90;;;;;;4990281;28;20053;-74
2023/09/04 02:49:15;;;;;;;7.00;4.20;;;19.10;99.90;;;;;;4995920;28;20054;-75
2023/09/04 02:51:40;;;;;;;7.40;3.25;;;19.20;99.90;;;;;;4988862;28;20026;-75
2023/09/04 02:54:06;;;;;;;7.03;3.53;;;19.10;99.90;;;;;;4990457;28;20026;-75
2023/09/04 02:56:32;;;;;;;7.10;4.22;;;18.90;99.90;;;;;;4989215;28;20038;-75
2023/09/04 02:58:57;;;;;;;4.95;3.63;;;18.90;99.90;;;;;;4988196;28;20040;-75
2023/09/04 03:01:23;;;;;;;9.02;3.78;;;18.70;99.90;;;;;;4989765;28;20501;-75
2023/09/04 03:03:49;;;;;;;8.55;3.50;;;18.70;99.90;;;;;;4988215;28;20465;-76
2023/09/04 03:06:14;;;;;;;5.65;3.78;;;18.90;99.90;;;;;;4982958;28;20027;-75
2023/09/04 03:08:40;;;;;;;5.78;3.40;;;19.00;99.90;;;;;;4985372;28;20042;-75
2023/09/04 03:11:09;;;;;;;6.05;3.85;;;19.00;99.90;;;;;;4983904;28;20084;-75
2023/09/04 03:13:35;;;;;;;6.13;4.18;;;18.70;99.90;;;;;;4986152;28;20383;-75
2023/09/04 03:16:01;;;;;;;8.45;4.15;;;18.70;99.90;;;;;;4991982;28;20366;-75
2023/09/04 03:18:26;;;;;;;5.97;3.75;;;18.70;99.90;;;;;;4983276;28;20045;-75
2023/09/04 03:20:52;;;;;;;5.78;3.85;;;18.60;99.90;;;;;;4980539;28;20061;-75
2023/09/04 03:23:18;;;;;;;6.72;4.10;;;18.60;99.90;;;;;;4983870;28;20366;-75
2023/09/04 03:25:44;;;;;;;6.80;3.70;;;18.60;99.90;;;;;;4988506;28;20165;-75
2023/09/04 03:28:09;;;;;;;7.07;3.78;;;18.60;99.90;;;;;;4983709;28;20038;-75
2023/09/04 03:30:35;;;;;;;5.78;3.60;;;18.60;99.90;;;;;;4984888;28;20581;-76
2023/09/04 03:33:01;;;;;;;8.48;3.50;;;18.80;99.90;;;;;;4981249;28;20030;-74
2023/09/04 03:35:26;;;;;;;4.50;2.90;;;18.80;99.90;;;;;;4980398;28;20397;-75
2023/09/04 03:37:52;;;;;;;6.00;3.70;;;18.80;99.90;;;;;;4985750;28;20085;-75
2023/09/04 03:40:23;;;;;;;6.88;3.63;;;18.70;99.90;;;;;;4989033;28;20022;-75
2023/09/04 03:42:49;;;;;;;7.03;3.55;;;18.70;99.90;;;;;;4986101;28;20041;-74
2023/09/04 03:45:15;;;;;;;6.72;3.80;;;18.70;99.90;;;;;;4983888;28;20042;-74
2023/09/04 03:47:42;;;;;;;7.57;4.13;;;18.60;99.90;;;;;;4985098;28;20030;-74
2023/09/04 03:50:10;;;;;;;4.82;3.13;;;18.60;99.90;;;;;;4984564;28;20038;-75
2023/09/04 03:52:36;;;;;;;5.80;3.28;;;18.60;99.90;;;;;;4995479;28;20057;-75
2023/09/04 03:55:02;;;;;;;5.40;3.17;;;18.60;99.90;;;;;;4984106;28;20066;-75
2023/09/04 03:57:27;;;;;;;5.65;3.70;;;18.60;99.90;;;;;;4981745;28;20178;-74
2023/09/04 03:59:53;;;;;;;7.63;3.67;;;18.60;99.90;;;;;;4983345;28;20046;-75
2023/09/04 04:02:19;;;;;;;7.30;4.25;;;18.60;99.90;;;;;;4986840;28;20044;-75
2023/09/04 04:04:44;;;;;;;6.10;3.65;;;18.70;99.90;;;;;;4983376;28;20058;-74
2023/09/04 04:07:10;;;;;;;6.65;3.42;;;18.80;99.90;;;;;;4983567;28;20053;-75
2023/09/04 04:09:35;;;;;;;5.60;3.17;;;18.80;99.90;;;;;;4985908;28;20081;-75
2023/09/04 04:12:01;;;;;;;7.07;3.38;;;18.80;99.90;;;;;;4987737;28;20066;-75
2023/09/04 04:14:27;;;;;;;5.50;3.10;;;18.90;99.90;;;;;;4988164;28;20066;-75
2023/09/04 04:16:52;;;;;;;5.53;3.70;;;18.70;99.90;;;;;;4985027;28;20035;-74
2023/09/04 04:19:20;;;;;;;7.43;3.95;;;18.70;99.90;;;;;;4983615;28;20038;-74
2023/09/04 04:21:45;;;;;;;5.10;3.13;;;18.60;99.90;;;;;;4983548;28;20058;-74
2023/09/04 04:24:11;;;;;;;7.60;4.00;;;18.60;99.90;;;;;;4984597;28;20072;-76
2023/09/04 04:26:39;;;;;;;4.90;3.33;;;18.70;99.90;;;;;;4984161;28;20038;-75
2023/09/04 04:29:05;;;;;;;6.65;4.15;;;18.60;99.90;;;;;;4983506;28;20038;-74
2023/09/04 04:31:30;;;;;;;5.55;3.72;;;18.50;99.90;;;;;;4984468;28;20030;-77
2023/09/04 04:33:56;;;;;;;4.68;2.60;;;18.30;99.90;;;;;;4985646;28;20117;-74
2023/09/04 04:36:22;;;;;;;6.15;3.90;;;18.20;99.90;;;;;;4984466;28;20070;-74
2023/09/04 04:38:47;;;;;;;5.72;3.33;;;18.10;99.90;;;;;;4984769;28;20034;-76
2023/09/04 04:41:13;;;;;;;5.53;3.45;;;18.10;99.90;;;;;;4991023;28;20088;-74
2023/09/04 04:43:39;;;;;;;5.65;3.35;;;18.10;99.90;;;;;;4984114;28;20878;-76
2023/09/04 04:46:04;;;;;;;5.15;3.17;;;18.00;99.90;;;;;;4988783;28;20034;-76
2023/09/04 04:48:30;;;;;;;6.60;2.88;;;18.10;99.90;;;;;;4985208;28;20089;-76
2023/09/04 04:50:56;;;;;;;5.60;3.60;;;18.00;99.90;;;;;;4983925;28;20384;-74
2023/09/04 04:53:21;;;;;;;5.25;3.20;;;18.00;99.90;;;;;;4989527;28;20505;-75
2023/09/04 04:55:47;;;;;;;5.20;2.92;;;18.00;99.90;;;;;;4983616;28;20034;-76
2023/09/04 04:58:13;;;;;;;5.97;3.38;;;18.10;99.90;;;;;;4984319;28;20034;-76
2023/09/04 05:00:39;;;;;;;5.10;3.20;;;18.10;99.90;;;;;;4985070;28;20045;-77
2023/09/04 05:03:05;;;;;;;7.05;3.65;;;18.20;99.90;;;;;;4987247;28;20034;-77
2023/09/04 05:05:31;;;;;;;4.72;2.80;;;18.30;99.90;;;;;;4988602;28;20507;-77
2023/09/04 05:07:56;;;;;;;6.10;2.70;;;18.20;99.90;;;;;;4991688;28;20045;-77
2023/09/04 05:10:22;;;;;;;4.63;3.10;;;18.10;99.90;;;;;;4989738;28;20450;-77
2023/09/04 05:12:48;;;;;;;5.57;3.38;;;18.20;99.90;;;;;;4986658;28;20042;-77
2023/09/04 05:15:13;;;;;;;5.18;2.95;;;18.30;99.90;;;;;;4991583;28;20085;-77
2023/09/04 05:17:39;;;;;;;5.10;3.17;;;18.30;99.90;;;;;;4989885;28;20054;-77
2023/09/04 05:20:05;;;;;;;5.50;3.17;;;18.40;99.90;;;;;;4991461;28;20026;-77
2023/09/04 05:22:32;;;;;;;9.25;3.30;;;18.40;99.90;;;;;;5005138;28;20030;-77
2023/09/04 05:24:58;;;;;;;5.93;3.22;;;18.60;99.90;;;;;;4989254;28;20045;-77
2023/09/04 05:27:24;;;;;;;4.53;3.05;;;18.70;99.90;;;;;;4989921;28;20037;-77
2023/09/04 05:29:49;;;;;;;6.55;3.42;;;18.90;99.90;;;;;;4987939;28;20370;-77
2023/09/04 05:32:15;;;;;;;5.38;3.00;;;18.80;99.90;;;;;;4988495;28;20030;-77
2023/09/04 05:34:41;;;;;;;5.65;3.15;;;18.70;99.90;;;;;;4992816;28;20531;-77
2023/09/04 05:37:08;;;;;;;5.13;3.20;;;18.40;99.90;;;;;;4979280;28;20029;-77
2023/09/04 05:39:33;;;;;;;5.00;3.40;;;18.40;99.90;;;;;;4993632;28;20121;-77
2023/09/04 05:41:59;;;;;;;6.00;3.38;;;18.30;99.90;;;;;;4991447;28;20054;-75
2023/09/04 05:44:25;;;;;;;8.25;3.40;;;18.20;99.90;;;;;;4988205;28;20019;-77
2023/09/04 05:46:50;;;;;;;5.30;2.85;;;18.40;99.90;;;;;;4986881;28;20027;-77
2023/09/04 05:49:16;;;;;;;5.68;3.38;;;18.40;99.90;;;;;;4993926;28;20038;-76
2023/09/04 05:51:42;;;;;;;5.45;3.17;;;18.30;99.90;;;;;;4989031;28;20034;-77
2023/09/04 05:54:07;;;;;;;6.85;2.88;;;18.40;99.90;;;;;;4986583;28;20069;-77
2023/09/04 05:56:33;;;;;;;4.93;3.00;;;18.30;99.90;;;;;;4988610;28;20031;-78
2023/09/04 05:59:00;;;;;;;5.18;3.13;;;18.40;99.90;;;;;;4985989;28;20089;-77
2023/09/04 06:01:27;;;;;;;5.38;3.20;;;18.50;99.90;;;;;;4986797;28;20044;-77
2023/09/04 06:03:54;;;;;;;5.82;3.58;;;18.40;99.90;;;;;;4984099;28;20045;-77
2023/09/04 06:06:19;;;;;;;6.20;3.40;;;18.40;99.90;;;;;;4990769;28;20030;-76
2023/09/04 06:08:45;;;;;;;6.40;3.50;;;18.50;99.90;;;;;;4984994;28;20034;-76
2023/09/04 06:11:12;;;;;;;5.75;3.50;;;18.60;99.90;;;;;;4984095;28;20792;-76
2023/09/04 06:13:37;;;;;;;9.95;3.80;;;18.50;99.90;;;;;;4988090;28;20026;-75
2023/09/04 06:16:03;;;;;;;5.32;2.80;;;18.50;99.90;;;;;;4983748;28;20093;-76
2023/09/04 06:18:29;;;;;;;4.72;3.03;;;18.50;99.90;;;;;;4986214;28;20133;-77
2023/09/04 06:20:55;;;;;;;6.15;3.45;;;18.40;99.90;;;;;;4989082;28;20032;-76
2023/09/04 06:23:22;;;;;;;6.38;3.67;;;18.40;99.90;;;;;;4985025;28;20072;-76
2023/09/04 06:25:47;;;;;;;5.80;2.92;;;18.20;99.90;;;;;;4986398;28;20074;-76
2023/09/04 06:28:14;;;;;;;6.22;3.85;;;18.20;99.90;;;;;;4989197;28;20425;-76
2023/09/04 06:30:40;;;;;;;7.25;3.22;;;18.30;99.90;;;;;;4983444;28;20026;-76
2023/09/04 06:33:05;;;;;;;6.60;2.80;;;18.40;99.90;;;;;;4983736;28;20034;-76
2023/09/04 06:35:31;;;;;;;6.50;3.17;;;18.40;99.90;;;;;;4986142;28;20026;-76
2023/09/04 06:37:58;;;;;;;6.35;3.30;;;18.60;99.90;;;;;;4981603;28;20397;-77
2023/09/04 06:40:23;;;;;;;6.15;3.20;;;18.70;99.90;;;;;;4983525;28;20030;-76
2023/09/04 06:42:49;;;;;;;4.80;2.97;;;18.80;99.90;;;;;;4988651;28;20030;-76
2023/09/04 06:45:15;;;;;;;4.65;3.35;;;18.90;99.90;;;;;;4982057;28;20125;-76
2023/09/04 06:47:41;;;;;;;6.75;3.40;;;18.90;99.90;;;;;;4984766;28;20100;-76
2023/09/04 06:50:08;;;;;;;6.15;3.83;;;19.10;99.90;;;;;;4987731;28;20082;-76
2023/09/04 06:52:34;;;;;;;5.03;3.25;;;20.10;99.90;;;;;;4984142;28;20377;-77
2023/09/04 06:55:00;;;;;;;7.18;3.88;;;20.20;99.90;;;;;;4983803;28;20105;-77
2023/09/04 06:57:26;;;;;;;5.45;2.90;;;20.30;99.90;;;;;;4986632;28;20108;-77
2023/09/04 06:59:54;;;;;;;6.97;3.70;;;22.30;99.90;;;;;;4989954;28;20587;-76
2023/09/04 07:02:20;;;;;;;5.20;3.25;;;24.60;99.70;;;;;;4982334;28;20026;-76
2023/09/04 07:04:46;;;;;;;4.82;2.60;;;26.00;97.50;;;;;;4985350;28;21042;-77
2023/09/04 07:07:11;;;;;;;5.72;3.65;;;27.10;96.30;;;;;;4981666;28;20536;-77
2023/09/04 07:09:37;;;;;;;12.18;3.90;;;28.30;94.40;;;;;;4985125;28;20125;-77
2023/09/04 07:12:05;;;;;;;5.85;3.13;;;28.50;93.90;;;;;;4985406;28;20429;-74
2023/09/04 07:14:32;;;;;;;5.53;3.63;;;28.30;93.90;;;;;;4984767;28;20439;-75
2023/09/04 07:16:58;;;;;;;8.10;3.55;;;28.20;94.00;;;;;;4986728;28;20489;-75
2023/09/04 07:19:23;;;;;;;15.68;3.45;;;28.90;93.90;;;;;;4983725;28;20041;-75
2023/09/04 07:21:49;;;;;;;7.65;3.42;;;29.40;93.60;;;;;;4982247;28;20030;-75
2023/09/04 07:24:15;;;;;;;4.75;2.72;;;27.90;93.70;;;;;;4981835;28;20481;-75
2023/09/04 07:26:40;;;;;;;6.03;3.40;;;24.70;95.70;;;;;;4984176;28;20026;-75
2023/09/04 07:29:06;;;;;;;6.55;3.30;;;22.70;99.10;;;;;;4990488;28;20089;-76
2023/09/04 07:31:32;;;;;;;6.43;2.83;;;21.60;99.90;;;;;;4984903;28;20040;-76
2023/09/04 07:33:58;;;;;;;5.57;3.13;;;21.10;99.90;;;;;;4983098;28;20019;-76
2023/09/04 07:36:24;;;;;;;4.93;3.28;;;20.70;99.90;;;;;;4982269;28;20026;-77
2023/09/04 07:38:49;;;;;;;6.88;3.45;;;20.60;99.90;;;;;;4983106;28;20388;-75
2023/09/04 07:41:15;;;;;;;4.65;3.00;;;20.50;99.90;;;;;;4985167;28;20045;-76
2023/09/04 07:43:41;;;;;;;5.32;3.22;;;20.40;99.90;;;;;;4980642;28;20033;-75
2023/09/04 07:46:06;;;;;;;6.10;3.22;;;20.50;99.90;;;;;;4982860;28;20026;-76
2023/09/04 07:48:34;;;;;;;8.45;3.65;;;20.50;99.90;;;;;;4993049;28;20034;-76
2023/09/04 07:51:00;;;;;;;5.82;3.47;;;20.60;99.90;;;;;;4992446;28;20122;-77
2023/09/04 07:53:26;;;;;;;6.30;2.97;;;20.60;99.90;;;;;;4987649;28;20085;-77
2023/09/04 07:55:53;;;;;;;7.53;3.05;;;20.70;99.90;;;;;;4989127;28;20034;-77
2023/09/04 07:58:19;;;;;;;9.57;3.58;;;20.70;99.90;;;;;;4993596;28;20026;-78
2023/09/04 08:00:50;;;;;;;7.03;3.55;;;20.70;99.90;;;;;;4993486;28;20037;-77
2023/09/04 08:03:16;;;;;;;5.60;2.80;;;20.70;99.90;;;;;;4986289;28;20037;-76
2023/09/04 08:05:42;;;;;;;7.85;3.78;;;20.80;99.90;;;;;;4986923;28;20062;-76
2023/09/04 08:08:10;;;;;;;5.32;3.17;;;20.80;99.90;;;;;;4988884;28;20030;-76
2023/09/04 08:10:39;;;;;;;9.10;3.47;;;20.80;99.90;;;;;;4986280;28;20030;-77
2023/09/04 08:13:07;;;;;;;5.53;3.17;;;20.90;99.90;;;;;;4985325;28;20076;-77
2023/09/04 08:15:33;;;;;;;8.07;3.03;;;21.00;99.90;;;;;;4985127;28;20019;-76
2023/09/04 08:18:00;;;;;;;6.07;3.50;;;21.00;99.90;;;;;;4986947;28;20161;-77
2023/09/04 08:20:26;;;;;;;7.07;3.83;;;21.00;99.90;;;;;;4988561;28;20033;-76
2023/09/04 08:22:51;;;;;;;8.25;3.80;;;21.10;99.90;;;;;;4987179;28;20031;-76
2023/09/04 08:25:17;;;;;;;5.50;3.30;;;21.20;99.90;;;;;;4993747;28;20032;-76
2023/09/04 08:27:43;;;;;;;9.85;4.10;;;21.20;99.90;;;;;;4990942;28;20037;-75
2023/09/04 08:30:09;;;;;;;5.97;3.60;;;21.40;99.90;;;;;;4990870;28;20626;-76
2023/09/04 08:32:34;;;;;;;8.38;3.40;;;21.40;99.90;;;;;;4994147;28;20037;-76
2023/09/04 08:35:00;;;;;;;11.73;4.03;;;21.60;99.90;;;;;;4987523;28;20026;-76
2023/09/04 08:37:26;;;;;;;7.05;3.58;;;21.60;99.90;;;;;;4986418;28;20081;-75
2023/09/04 08:39:51;;;;;;;9.27;3.72;;;21.60;99.90;;;;;;4987967;28;20033;-76
2023/09/04 08:42:17;;;;;;;11.40;3.88;;;21.70;99.90;;;;;;4986158;28;20030;-76
2023/09/04 08:44:43;;;;;;;6.38;3.80;;;21.70;99.90;;;;;;4988192;28;20169;-76
2023/09/04 08:47:12;;;;;;;5.18;2.95;;;21.90;99.90;;;;;;4988005;28;20187;-76
2023/09/04 08:49:38;;;;;;;6.68;3.35;;;22.00;99.90;;;;;;4989542;28;20200;-76
2023/09/04 08:52:05;;;;;;;4.85;2.88;;;22.20;99.90;;;;;;4990878;28;20118;-76
2023/09/04 08:54:33;;;;;;;5.80;3.33;;;24.40;98.90;;;;;;4991513;28;20037;-76
2023/09/04 08:56:59;;;;;;;7.13;3.28;;;27.10;96.30;;;;;;4985404;28;20138;-75
2023/09/04 08:59:25;;;;;;;5.68;3.53;;;28.50;94.80;;;;;;4985919;28;20030;-76
2023/09/04 09:01:53;;;;;;;5.65;3.13;;;29.10;94.00;;;;;;4987129;28;20026;-75
2023/09/04 09:04:21;;;;;;;7.05;3.20;;;29.20;93.60;;;;;;4986090;28;20042;-75
2023/09/04 09:06:51;;;;;;;6.28;2.95;;;30.00;92.90;;;;;;4986399;28;20034;-75
2023/09/04 09:09:20;;;;;;;5.30;3.25;;;30.10;93.00;;;;;;4987456;28;20030;-75
2023/09/04 09:11:46;;;;;;;5.80;3.47;;;30.50;92.40;;;;;;4987033;28;20039;-75
2023/09/04 09:14:12;;;;;;;6.97;2.95;;;30.40;91.80;;;;;;4986555;28;20030;-75
2023/09/04 09:16:38;;;;;;;6.53;3.08;;;31.00;92.40;;;;;;4987109;28;20034;-75
2023/09/04 09:19:04;;;;;;;6.57;3.75;;;30.40;92.10;;;;;;4986716;28;20076;-75
2023/09/04 09:21:32;;;;;;;5.95;3.60;;;30.80;92.50;;;;;;4985985;28;20041;-75
2023/09/04 09:24:18;;;;;;;11.15;3.42;;;29.40;91.70;;;;;;4986650;28;20030;-76
2023/09/04 09:26:48;;;;;;;5.43;3.22;;;30.00;92.30;;;;;;4994453;28;20032;-75
2023/09/04 09:29:15;;;;;;;5.95;3.28;;;30.90;92.30;;;;;;4984953;28;20578;-76
2023/09/04 09:31:43;;;;;;;5.65;3.38;;;30.70;92.60;;;;;;4986573;28;20030;-75
2023/09/04 09:34:09;;;;;;;6.47;3.30;;;29.80;91.80;;;;;;4985927;28;20069;-76
2023/09/04 09:36:35;;;;;;;8.35;3.45;;;28.70;92.10;;;;;;4986989;28;20489;-76
2023/09/04 09:39:02;;;;;;;5.85;3.38;;;27.50;93.00;;;;;;4989033;28;20031;-76
2023/09/04 09:41:31;;;;;;;6.78;3.67;;;26.20;94.20;;;;;;4986171;28;20022;-75
2023/09/04 09:44:01;;;;;;;6.22;2.90;;;25.50;93.90;;;;;;4986415;28;20061;-75
2023/09/04 09:46:28;;;;;;;5.70;3.25;;;25.00;94.60;;;;;;4987587;28;20026;-75
2023/09/04 09:48:54;;;;;;;8.48;3.50;;;24.80;94.90;;;;;;4990715;28;20070;-76
2023/09/04 09:51:20;;;;;;;5.40;3.33;;;24.70;95.70;;;;;;4991299;28;20061;-75
2023/09/04 09:53:48;;;;;;;7.25;3.40;;;24.80;95.50;;;;;;4987326;28;20032;-75
2023/09/04 09:56:15;;;;;;;7.05;3.30;;;24.60;95.90;;;;;;4993920;28;20056;-75
2023/09/04 09:58:42;;;;;;;5.20;3.58;;;24.60;96.00;;;;;;4994839;28;20034;-75
2023/09/04 10:01:08;;;;;;;6.65;2.83;;;24.80;96.30;;;;;;4991678;28;20077;-75
2023/09/04 10:03:36;;;;;;;6.15;2.58;;;25.10;96.40;;;;;;4975114;28;20132;-76
2023/09/04 10:06:06;;;;;;;8.48;3.78;;;25.00;95.00;;;;;;4991225;28;20061;-75
2023/09/04 10:08:51;;;;;;;6.43;3.47;;;25.10;96.20;;;;;;4988459;28;20503;-74
2023/09/04 10:11:17;;;;;;;6.57;3.08;;;25.10;95.60;;;;;;4986052;28;20041;-75
2023/09/04 10:13:56;;;;;;;7.20;3.38;;;25.20;96.40;;;;;;4984943;28;20030;-75
2023/09/04 10:16:34;;;;;;;19.58;4.38;;;25.40;95.50;;;;;;4985120;28;20391;-75
2023/09/04 10:19:02;;;;;;;20.35;4.20;;;25.50;95.20;;;;;;4985405;28;20037;-75
2023/09/04 10:21:42;;;;;;;5.47;3.53;;;25.40;95.50;;;;;;4998805;28;20025;-75
2023/09/04 10:24:14;;;;;;;24.42;5.35;;;25.40;94.60;;;;;;4984576;28;20076;-76
2023/09/04 10:26:52;;;;;;;7.97;2.92;;;25.40;95.40;;;;;;4984491;28;20416;-76
2023/09/04 10:29:22;;;;;;;10.75;3.47;;;25.50;94.70;;;;;;4984432;28;20078;-76
2023/09/04 10:31:48;;;;;;;11.23;4.07;;;25.50;95.10;;;;;;4984894;28;20030;-76
2023/09/04 10:34:14;;;;;;;9.55;4.30;;;25.70;95.60;;;;;;4991713;28;20515;-76
2023/09/04 10:36:40;;;;;;;10.27;3.20;;;26.00;95.80;;;;;;4985244;28;20038;-76
2023/09/04 10:39:08;;;;;;;6.05;3.22;;;26.00;94.70;;;;;;4985745;28;20555;-76
2023/09/04 10:41:35;;;;;;;6.05;2.67;;;25.80;94.60;;;;;;4983800;28;20053;-76
2023/09/04 10:44:01;;;;;;;8.00;3.13;;;25.80;94.60;;;;;;4984193;28;20030;-75
2023/09/04 10:46:27;;;;;;;7.28;3.05;;;25.90;93.40;;;;;;4985311;28;20034;-76
2023/09/04 10:48:53;;;;;;;5.28;2.83;;;26.20;94.70;;;;;;4985228;28;20376;-76
2023/09/04 10:51:37;;;;;;;6.43;2.55;;;26.20;94.30;;;;;;4984703;28;20026;-76
2023/09/04 10:54:12;;;;;;;5.25;3.60;;;26.30;95.10;;;;;;4985845;28;20029;-76
2023/09/04 10:56:58;;;;;;;4.85;3.20;;;26.30;94.90;;;;;;4998745;28;20030;-76
2023/09/04 10:59:25;;;;;;;4.57;2.78;;;26.60;95.60;;;;;;4984684;28;20050;-75
2023/09/04 11:01:51;;;;;;;5.20;2.97;;;26.50;95.00;;;;;;4988345;28;20496;-76
2023/09/04 11:04:35;;;;;;;6.57;3.03;;;26.30;95.20;;;;;;4983746;28;20141;-75
2023/09/04 11:07:24;;;;;;;;;;;26.50;95.60;;;;;;4984269;28;24225;-76
2023/09/04 11:10:14;;;;;;;5.00;3.10;;;26.70;95.70;;;;;;4981129;28;19933;-76
2023/09/04 11:12:42;;;;;;;5.93;3.17;;;27.00;96.50;;;;;;4987703;28;21013;-76
2023/09/04 11:15:17;;;;;;;10.23;3.30;;;27.00;96.30;;;;;;4986803;28;20508;-76
2023/09/04 11:17:50;;;;;;;6.13;3.38;;;26.90;95.50;;;;;;4985119;28;20113;-75
2023/09/04 11:20:17;;;;;;;5.40;2.97;;;26.90;95.70;;;;;;4983411;28;20496;-75
2023/09/04 11:22:49;;;;;;;5.45;3.60;;;26.90;96.30;;;;;;4982236;28;20030;-75
2023/09/04 11:25:15;;;;;;;5.85;3.22;;;26.90;95.60;;;;;;4983327;28;20030;-75
2023/09/04 11:27:44;;;;;;;4.72;2.83;;;26.80;96.00;;;;;;4982305;28;20035;-75
2023/09/04 11:30:10;;;;;;;5.75;3.10;;;26.80;95.60;;;;;;4987793;28;20120;-75
2023/09/04 11:32:39;;;;;;;6.45;3.22;;;26.90;96.10;;;;;;4983027;28;20030;-75
2023/09/04 11:35:10;;;;;;;7.75;3.42;;;26.90;95.40;;;;;;4982317;28;20030;-76
2023/09/04 11:37:36;;;;;;;5.70;2.83;;;26.90;96.40;;;;;;4983874;28;20077;-76
2023/09/04 11:40:04;;;;;;;6.80;3.28;;;27.00;96.00;;;;;;4983888;28;20034;-75
2023/09/04 11:42:30;;;;;;;5.55;3.58;;;27.50;97.20;;;;;;4984521;28;20026;-75
2023/09/04 11:44:55;;;;;;;9.50;3.65;;;27.60;96.50;;;;;;4983015;28;20030;-76
2023/09/04 11:47:24;;;;;;;7.10;4.03;;;27.60;96.70;;;;;;4982312;28;20050;-76
2023/09/04 11:49:50;;;;;;;4.65;3.00;;;27.80;95.80;;;;;;4979839;28;20123;-76
2023/09/04 11:52:17;;;;;;;4.40;2.80;;;27.80;95.50;;;;;;4983719;28;20518;-75
2023/09/04 11:54:43;;;;;;;4.90;2.70;;;27.80;96.60;;;;;;4986522;28;20040;-75
2023/09/04 11:57:10;;;;;;;3.78;2.35;;;28.00;95.90;;;;;;4985195;28;20614;-75
2023/09/04 11:59:37;;;;;;;5.47;3.00;;;28.30;96.30;;;;;;4993324;28;20077;-76
2023/09/04 12:02:04;;;;;;;5.65;2.80;;;28.20;95.80;;;;;;4993862;28;20834;-77
2023/09/04 12:04:32;;;;;;;9.75;3.95;;;28.10;95.50;;;;;;4984424;28;20057;-76
2023/09/04 12:07:02;;;;;;;6.20;4.03;;;28.00;95.90;;;;;;4986177;28;20034;-77
2023/09/04 12:09:28;;;;;;;7.05;3.58;;;28.00;95.90;;;;;;4987697;28;20046;-76
2023/09/04 12:11:54;;;;;;;4.63;2.63;;;28.10;95.90;;;;;;4994425;28;20041;-76
2023/09/04 12:14:20;;;;;;;4.57;2.78;;;28.20;95.40;;;;;;4989742;28;20033;-77
2023/09/04 12:16:47;;;;;;;5.28;3.38;;;28.30;97.00;;;;;;4993750;28;20056;-76
2023/09/04 12:19:15;;;;;;;5.80;3.03;;;28.40;95.90;;;;;;4988124;28;20034;-76
2023/09/04 12:21:41;;;;;;;6.63;3.15;;;28.30;95.90;;;;;;4987367;28;20026;-78
2023/09/04 12:24:16;;;;;;;6.88;2.90;;;28.50;95.80;;;;;;4996093;28;20022;-75
2023/09/04 12:26:43;;;;;;;4.90;2.97;;;28.40;95.10;;;;;;4987282;28;20027;-77
2023/09/04 12:29:09;;;;;;;5.50;3.45;;;28.50;95.40;;;;;;4996471;28;20038;-75
2023/09/04 12:31:36;;;;;;;5.93;3.33;;;28.60;95.10;;;;;;4996999;28;20026;-74
2023/09/04 12:34:02;;;;;;;4.25;2.80;;;28.70;96.30;;;;;;4995551;28;20030;-75
2023/09/04 12:36:30;;;;;;;5.05;3.35;;;28.80;95.40;;;;;;4995983;28;20113;-75
2023/09/04 12:38:56;;;;;;;5.88;2.97;;;28.60;95.10;;;;;;4996084;28;20029;-75
2023/09/04 12:41:22;;;;;;;5.10;3.17;;;28.70;95.40;;;;;;4994581;28;20120;-75
2023/09/04 12:43:48;;;;;;;6.80;3.08;;;28.70;95.60;;;;;;4995780;28;20066;-75
2023/09/04 12:46:13;;;;;;;5.35;3.25;;;28.70;95.40;;;;;;4994309;28;20411;-75